Time;durP1;ratioP1;P1;durP2;ratioP2;P2;SDS_P1;SDS_P2;PMS_P1;PMS_P2;Temp;Humidity;BMP_temperature;BMP_pressure;BME280_temperature;BME280_humidity;BME280_pressure;Samples;Min_cycle;Max_cycle;Signal;HPM_P1;HPM_P2
2023/09/16 00:02:31;;;;;;;;;;;22.70;61.20;;;;;;10386825;28;20036;-63
2023/09/16 00:07:33;;;;;;;;;;;22.70;61.20;;;;;;10392125;28;19972;-63
2023/09/16 00:12:35;;;;;;;;;;;22.70;61.20;;;;;;10395346;28;19938;-63
2023/09/16 00:17:36;;;;;;;;;;;22.60;61.20;;;;;;10377419;28;19984;-63
2023/09/16 00:22:38;;;;;;;;;;;22.60;61.10;;;;;;10391088;28;20019;-63
2023/09/16 00:27:40;;;;;;;;;;;22.60;61.20;;;;;;10386104;28;20723;-63
2023/09/16 00:32:42;;;;;;;;;;;22.60;61.20;;;;;;10386935;28;19937;-63
2023/09/16 00:37:44;;;;;;;;;;;22.60;61.20;;;;;;10376774;28;19941;-64
2023/09/16 00:42:46;;;;;;;;;;;22.60;61.30;;;;;;10389590;28;19938;-64
2023/09/16 00:47:48;;;;;;;;;;;22.60;62.30;;;;;;10360713;28;20600;-63
2023/09/16 00:52:52;;;;;;;;;;;22.50;61.20;;;;;;10392965;28;19940;-62
2023/09/16 00:57:55;;;;;;;;;;;22.50;61.30;;;;;;10384706;28;19934;-63
2023/09/16 01:02:59;;;;;;;;;;;22.50;61.30;;;;;;10392330;28;20191;-63
2023/09/16 01:08:01;;;;;;;;;;;22.50;61.30;;;;;;10387923;28;20400;-64
2023/09/16 01:13:03;;;;;;;;;;;22.50;61.30;;;;;;10390640;28;19940;-63
2023/09/16 01:18:11;;;;;;;;;;;22.50;61.30;;;;;;10387405;28;19933;-64
2023/09/16 01:23:18;;;;;;;;;;;22.50;61.30;;;;;;10386419;28;19941;-64
2023/09/16 01:28:22;;;;;;;;;;;22.50;61.30;;;;;;10393284;28;20020;-63
2023/09/16 01:33:24;;;;;;;;;;;22.50;61.30;;;;;;10394659;28;20072;-63
2023/09/16 01:38:27;;;;;;;;;;;22.50;61.30;;;;;;10397675;28;20691;-63
2023/09/16 01:43:31;;;;;;;;;;;22.50;61.30;;;;;;10390693;28;20019;-64
2023/09/16 01:48:32;;;;;;;;;;;22.40;61.30;;;;;;10392043;28;19933;-64
2023/09/16 01:53:47;;;;;;;;;;;22.50;61.30;;;;;;10376304;28;20103;-62
2023/09/16 01:58:49;;;;;;;;;;;22.40;61.20;;;;;;10388259;28;19941;-62
2023/09/16 02:03:52;;;;;;;;;;;22.40;61.20;;;;;;10390356;28;19937;-63
2023/09/16 02:08:54;;;;;;;;;;;22.40;62.30;;;;;;10393833;28;20020;-63
2023/09/16 02:13:55;;;;;;;;;;;22.50;61.30;;;;;;10395357;28;19944;-64
2023/09/16 02:18:57;;;;;;;;;;;22.40;61.30;;;;;;10390479;28;20124;-64
2023/09/16 02:23:59;;;;;;;;;;;22.40;61.30;;;;;;10394336;28;20452;-64
2023/09/16 02:29:01;;;;;;;;;;;22.40;61.30;;;;;;10398249;28;19934;-63
2023/09/16 02:34:03;;;;;;;;;;;22.40;61.20;;;;;;10382854;28;19933;-63
2023/09/16 02:39:05;;;;;;;;;;;22.40;61.20;;;;;;10393500;28;19933;-63
2023/09/16 02:44:07;;;;;;;;;;;22.40;61.10;;;;;;10393636;28;19933;-64
2023/09/16 02:49:09;;;;;;;;;;;22.40;61.10;;;;;;10391858;28;20004;-64
2023/09/16 02:54:11;;;;;;;;;;;22.40;61.10;;;;;;10395980;28;20265;-63
2023/09/16 02:59:13;;;;;;;;;;;22.40;61.10;;;;;;10379049;28;19934;-63
2023/09/16 03:04:14;;;;;;;;;;;22.40;61.00;;;;;;10391188;28;19944;-63
2023/09/16 03:09:17;;;;;;;;;;;22.40;61.00;;;;;;10403432;28;20102;-63
2023/09/16 03:14:18;;;;;;;;;;;22.40;61.00;;;;;;10387658;28;20397;-63
2023/09/16 03:19:22;;;;;;;;;;;22.40;61.10;;;;;;10392614;28;19955;-63
2023/09/16 03:24:23;;;;;;;;;;;22.40;61.10;;;;;;10388429;28;19940;-63
2023/09/16 03:29:26;;;;;;;;;;;22.40;61.00;;;;;;10381226;28;20404;-63
2023/09/16 03:34:28;;;;;;;;;;;22.40;61.10;;;;;;10367134;28;19933;-64
2023/09/16 03:39:30;;;;;;;;;;;22.40;61.10;;;;;;10366397;28;20193;-64
2023/09/16 03:44:32;;;;;;;;;;;22.40;61.10;;;;;;10384805;28;20410;-63
2023/09/16 03:49:33;;;;;;;;;;;22.40;61.20;;;;;;10387077;28;19933;-63
2023/09/16 03:54:35;;;;;;;;;;;22.30;61.10;;;;;;10396862;28;19933;-63
2023/09/16 03:59:37;;;;;;;;;;;22.30;61.10;;;;;;10369086;28;19941;-63
2023/09/16 04:04:38;;;;;;;;;;;22.30;61.10;;;;;;10370356;28;20036;-67
2023/09/16 04:09:44;;;;;;;;;;;22.30;61.10;;;;;;10385986;28;19943;-68
2023/09/16 04:14:45;;;;;;;;;;;22.30;61.10;;;;;;10367820;28;19968;-67
2023/09/16 04:19:47;;;;;;;;;;;22.30;61.10;;;;;;10367230;28;20039;-66
2023/09/16 04:24:49;;;;;;;;;;;22.30;61.10;;;;;;10388249;28;19934;-65
2023/09/16 04:29:52;;;;;;;;;;;22.30;61.10;;;;;;10387980;28;20038;-66
2023/09/16 04:34:56;;;;;;;;;;;22.20;61.10;;;;;;10377406;28;19940;-66
2023/09/16 04:39:58;;;;;;;;;;;22.30;61.10;;;;;;10389864;28;19940;-66
2023/09/16 04:45:00;;;;;;;;;;;22.20;61.10;;;;;;10387555;28;19933;-66
2023/09/16 04:50:02;;;;;;;;;;;22.20;61.10;;;;;;10768441;22;19933;-44
2023/09/16 04:55:04;;;;;;;;;;;22.20;61.20;;;;;;10347402;28;22012;-42
2023/09/16 05:00:06;;;;;;;;;;;22.30;61.20;;;;;;10351032;28;19988;-43
2023/09/16 05:05:09;;;;;;;;;;;22.20;61.00;;;;;;10354391;28;20007;-44
2023/09/16 05:10:12;;;;;;;;;;;22.20;61.10;;;;;;10373659;28;20427;-45
2023/09/16 05:15:14;;;;;;;;;;;22.20;61.20;;;;;;10363468;28;20216;-42
2023/09/16 05:20:16;;;;;;;;;;;22.30;61.20;;;;;;10360937;28;19937;-42
2023/09/16 05:25:18;;;;;;;;;;;22.20;61.10;;;;;;10368800;28;20084;-43
2023/09/16 05:30:19;;;;;;;;;;;22.30;61.30;;;;;;10354545;28;20434;-43
2023/09/16 05:35:21;;;;;;;;;;;22.30;61.20;;;;;;10354474;28;20396;-42
2023/09/16 05:40:23;;;;;;;;;;;22.30;61.20;;;;;;10347016;28;20202;-44
2023/09/16 05:45:25;;;;;;;;;;;22.30;61.20;;;;;;10341144;28;19961;-42
2023/09/16 05:50:27;;;;;;;;;;;22.30;61.10;;;;;;10347703;28;20309;-43
2023/09/16 05:55:29;;;;;;;;;;;22.30;60.90;;;;;;10350044;28;20387;-43
2023/09/16 06:00:30;;;;;;;;;;;22.30;61.10;;;;;;10374022;28;19941;-42
2023/09/16 06:05:33;;;;;;;;;;;22.30;61.00;;;;;;10371719;28;19933;-42
2023/09/16 06:10:35;;;;;;;;;;;22.30;61.10;;;;;;10352035;28;19956;-42
2023/09/16 06:15:36;;;;;;;;;;;22.30;60.90;;;;;;10339466;28;20384;-46
2023/09/16 06:20:39;;;;;;;;;;;22.30;61.10;;;;;;10352114;28;19941;-42
2023/09/16 06:25:40;;;;;;;;;;;22.30;60.90;;;;;;10347141;28;19940;-41
2023/09/16 06:30:42;;;;;;;;;;;22.20;59.60;;;;;;10359015;28;19942;-41
2023/09/16 06:35:44;;;;;;;;;;;22.20;59.20;;;;;;10326266;28;19957;-41
2023/09/16 06:40:46;;;;;;;;;;;22.10;59.40;;;;;;10351816;28;20392;-42
2023/09/16 06:45:49;;;;;;;;;;;21.90;59.60;;;;;;10342093;28;19941;-42
2023/09/16 06:50:51;;;;;;;;;;;21.80;60.50;;;;;;10360049;28;19933;-41
2023/09/16 06:55:53;;;;;;;;;;;21.80;60.50;;;;;;10369809;28;20240;-43
2023/09/16 07:00:55;;;;;;;;;;;21.80;60.90;;;;;;10351723;28;19934;-42
2023/09/16 07:05:57;;;;;;;;;;;21.90;61.00;;;;;;10361190;28;20047;-43
2023/09/16 07:10:58;;;;;;;;;;;21.90;61.30;;;;;;10338860;28;19934;-43
2023/09/16 07:16:01;;;;;;;;;;;21.90;61.20;;;;;;10325386;28;19934;-41
2023/09/16 07:21:03;;;;;;;;;;;21.90;61.20;;;;;;10325371;28;20312;-43
2023/09/16 07:26:05;;;;;;;;;;;21.90;61.30;;;;;;10348203;28;19934;-41
2023/09/16 07:31:07;;;;;;;;;;;21.90;61.30;;;;;;10343349;28;19934;-41
2023/09/16 07:36:09;;;;;;;;;;;21.90;61.20;;;;;;10333559;28;19940;-45
2023/09/16 07:41:10;;;;;;;;;;;22.00;61.30;;;;;;10342959;28;19941;-42
2023/09/16 07:46:12;;;;;;;;;;;22.00;61.30;;;;;;10347132;28;19934;-41
2023/09/16 07:51:14;;;;;;;;;;;21.90;61.40;;;;;;10342169;28;20242;-44
2023/09/16 07:56:18;;;;;;;;;;;21.90;61.40;;;;;;10350772;28;19934;-44
2023/09/16 08:01:19;;;;;;;;;;;22.00;61.40;;;;;;10335890;28;20306;-47
2023/09/16 08:06:21;;;;;;;;;;;22.00;61.30;;;;;;10354305;28;19934;-45
2023/09/16 08:11:23;;;;;;;;;;;22.00;61.40;;;;;;10360363;28;20246;-48
2023/09/16 08:16:25;;;;;;;;;;;22.00;61.90;;;;;;10343234;28;20065;-41
2023/09/16 08:21:27;;;;;;;;;;;22.00;62.40;;;;;;10336138;28;19934;-43
2023/09/16 08:26:29;;;;;;;;;;;22.00;62.60;;;;;;10348425;28;19976;-42
2023/09/16 08:31:31;;;;;;;;;;;21.90;62.70;;;;;;10342476;28;19933;-46
2023/09/16 08:36:33;;;;;;;;;;;22.00;63.30;;;;;;10351460;28;19934;-41
2023/09/16 08:41:41;;;;;;;;;;;22.00;63.60;;;;;;10346512;28;19934;-41
2023/09/16 08:46:45;;;;;;;;;;;21.90;63.70;;;;;;10337713;28;20019;-42
2023/09/16 08:51:48;;;;;;;;;;;22.00;64.20;;;;;;10347770;28;19940;-43
2023/09/16 08:56:50;;;;;;;;;;;22.00;64.50;;;;;;10340929;28;20534;-42
2023/09/16 09:01:52;;;;;;;;;;;22.00;64.80;;;;;;10344618;28;19933;-41
2023/09/16 09:06:54;;;;;;;;;;;22.10;64.60;;;;;;10342273;28;19941;-41
2023/09/16 09:11:57;;;;;;;;;;;22.10;64.40;;;;;;10345247;28;19981;-42
2023/09/16 09:17:00;;;;;;;;;;;22.10;64.40;;;;;;10356650;28;19969;-43
2023/09/16 09:22:02;;;;;;;;;;;22.10;64.30;;;;;;10362395;28;19934;-42
2023/09/16 09:27:06;;;;;;;;;;;22.10;64.20;;;;;;10348646;28;19934;-43
2023/09/16 09:32:09;;;;;;;;;;;22.20;64.40;;;;;;10342468;28;20534;-45
2023/09/16 09:37:15;;;;;;;;;;;22.20;64.30;;;;;;10354120;28;20043;-43
2023/09/16 09:42:23;;;;;;;;;;;22.20;64.50;;;;;;10332519;28;20084;-42
2023/09/16 09:47:25;;;;;;;;;;;22.20;64.60;;;;;;10329332;28;20188;-44
2023/09/16 09:52:27;;;;;;;;;;;22.30;64.10;;;;;;10349306;28;19934;-42
2023/09/16 09:57:28;;;;;;;;;;;22.40;64.00;;;;;;10348969;28;19940;-43
2023/09/16 10:02:31;;;;;;;;;;;22.50;63.90;;;;;;10367876;28;20031;-44
2023/09/16 10:07:33;;;;;;;;;;;22.50;63.70;;;;;;10333935;28;20464;-43
2023/09/16 10:12:35;;;;;;;;;;;22.50;63.60;;;;;;10345227;28;19934;-44
2023/09/16 10:17:37;;;;;;;;;;;22.50;63.90;;;;;;10348103;28;19934;-44
2023/09/16 10:22:39;;;;;;;;;;;22.50;64.30;;;;;;10355050;28;19957;-43
2023/09/16 10:28:03;;;;;;;;;;;22.50;63.30;;;;;;10340107;28;19934;-44
2023/09/16 10:33:06;;;;;;;;;;;22.50;63.10;;;;;;10360237;28;20009;-43
2023/09/16 10:38:10;;;;;;;;;;;22.50;63.20;;;;;;10350438;28;19938;-45
2023/09/16 10:43:12;;;;;;;;;;;22.50;63.40;;;;;;10345868;28;20305;-44
2023/09/16 10:48:14;;;;;;;;;;;22.50;63.20;;;;;;10341789;28;19934;-43
2023/09/16 10:53:18;;;;;;;;;;;22.50;63.30;;;;;;10353518;28;19934;-43
2023/09/16 10:58:25;;;;;;;;;;;22.70;63.00;;;;;;10352134;28;19940;-42
2023/09/16 11:03:30;;;;;;;;;;;22.70;62.20;;;;;;10347926;28;19957;-39
2023/09/16 11:08:32;;;;;;;;;;;22.80;62.50;;;;;;10350167;28;20024;-41
2023/09/16 11:13:34;;;;;;;;;;;22.80;63.60;;;;;;10347139;28;19934;-40
2023/09/16 11:18:40;;;;;;;;;;;23.00;64.60;;;;;;10347859;28;19949;-40
2023/09/16 11:23:43;;;;;;;;;;;23.10;63.30;;;;;;10330517;28;19934;-40
2023/09/16 11:28:45;;;;;;;;;;;23.30;63.90;;;;;;10332629;28;19934;-40
2023/09/16 11:33:47;;;;;;;;;;;23.40;63.60;;;;;;10335431;28;19934;-42
2023/09/16 11:38:55;;;;;;;;;;;23.30;63.20;;;;;;10339616;28;20321;-42
2023/09/16 11:43:57;;;;;;;;;;;23.30;63.20;;;;;;10350793;28;19933;-40
2023/09/16 11:49:03;;;;;;;;;;;23.30;63.10;;;;;;10345505;28;20387;-42
2023/09/16 11:54:05;;;;;;;;;;;23.30;62.50;;;;;;10343938;28;19945;-43
2023/09/16 11:59:07;;;;;;;;;;;23.30;62.60;;;;;;10350930;28;19940;-40
2023/09/16 12:04:10;;;;;;;;;;;23.30;63.50;;;;;;10347250;28;19934;-40
2023/09/16 12:09:18;;;;;;;;;;;23.20;62.70;;;;;;10351814;28;19933;-43
2023/09/16 12:14:21;;;;;;;;;;;23.20;62.80;;;;;;10339455;28;19933;-41
2023/09/16 12:19:22;;;;;;;;;;;23.30;62.90;;;;;;10350440;28;20035;-43
2023/09/16 12:24:24;;;;;;;;;;;23.20;62.80;;;;;;10364995;28;19934;-43
2023/09/16 12:29:27;;;;;;;;;;;23.30;62.20;;;;;;10333799;28;20362;-41
2023/09/16 12:34:28;;;;;;;;;;;23.30;61.60;;;;;;10339123;28;19934;-45
2023/09/16 12:39:34;;;;;;;;;;;23.30;61.30;;;;;;10351162;28;20065;-45
2023/09/16 12:44:37;;;;;;;;;;;23.20;61.20;;;;;;10355172;28;19934;-41
2023/09/16 12:49:40;;;;;;;;;;;23.30;61.40;;;;;;10350963;28;19985;-45
2023/09/16 12:54:42;;;;;;;;;;;23.30;61.40;;;;;;10350776;28;20388;-44
2023/09/16 12:59:45;;;;;;;;;;;23.30;61.10;;;;;;10355519;28;20240;-45
2023/09/16 13:04:47;;;;;;;;;;;23.30;61.10;;;;;;10347914;28;19934;-43
2023/09/16 13:09:48;;;;;;;;;;;23.30;60.40;;;;;;10347142;28;19934;-44
2023/09/16 13:14:50;;;;;;;;;;;23.30;60.00;;;;;;10345209;28;19934;-47
2023/09/16 13:19:52;;;;;;;;;;;23.30;60.20;;;;;;10359729;28;20383;-43
2023/09/16 13:24:54;;;;;;;;;;;23.40;60.90;;;;;;10352613;28;19934;-45
2023/09/16 13:29:59;;;;;;;;;;;23.40;60.90;;;;;;10354166;28;19933;-45
2023/09/16 13:35:01;;;;;;;;;;;23.30;60.90;;;;;;10347315;28;20303;-43
2023/09/16 13:40:07;;;;;;;;;;;23.40;61.10;;;;;;10363152;28;20046;-44
2023/09/16 13:45:08;;;;;;;;;;;23.30;61.00;;;;;;10342671;28;19933;-46
2023/09/16 13:50:10;;;;;;;;;;;23.30;61.10;;;;;;10335867;28;19940;-42
2023/09/16 13:55:12;;;;;;;;;;;23.40;61.10;;;;;;10334178;28;20009;-40
2023/09/16 14:00:14;;;;;;;;;;;23.30;61.10;;;;;;10369255;28;19934;-44
2023/09/16 14:05:15;;;;;;;;;;;23.40;61.30;;;;;;10384760;28;19933;-45
2023/09/16 14:10:17;;;;;;;;;;;23.30;61.40;;;;;;10363262;28;19997;-43
2023/09/16 14:15:20;;;;;;;;;;;23.30;61.40;;;;;;10365375;28;20528;-44
2023/09/16 14:20:21;;;;;;;;;;;23.30;62.50;;;;;;10315584;28;20009;-48
2023/09/16 14:25:23;;;;;;;;;;;23.30;61.50;;;;;;10329354;28;20041;-44
2023/09/16 14:30:26;;;;;;;;;;;23.30;61.60;;;;;;10332341;28;19934;-45
2023/09/16 14:35:33;;;;;;;;;;;23.20;61.60;;;;;;10357137;28;19940;-41
2023/09/16 14:40:37;;;;;;;;;;;23.30;61.60;;;;;;10348470;28;19933;-42
2023/09/16 14:45:41;;;;;;;;;;;23.30;61.70;;;;;;10338379;28;19989;-44
2023/09/16 14:50:43;;;;;;;;;;;23.30;61.70;;;;;;10365110;28;19934;-40
2023/09/16 14:55:45;;;;;;;;;;;23.20;61.70;;;;;;10350823;28;19933;-45
2023/09/16 15:00:47;;;;;;;;;;;23.30;61.80;;;;;;10363386;28;20792;-41
2023/09/16 15:05:49;;;;;;;;;;;23.20;61.80;;;;;;10364724;28;20414;-42
2023/09/16 15:10:51;;;;;;;;;;;23.20;61.80;;;;;;10355248;28;20286;-43
2023/09/16 15:15:52;;;;;;;;;;;23.20;61.90;;;;;;10360087;28;19998;-43
2023/09/16 15:20:55;;;;;;;;;;;23.20;62.00;;;;;;10342743;28;19977;-43
2023/09/16 15:25:57;;;;;;;;;;;23.20;61.90;;;;;;10352070;28;20859;-45
2023/09/16 15:30:59;;;;;;;;;;;23.20;61.40;;;;;;10339236;28;19933;-41
2023/09/16 15:36:01;;;;;;;;;;;23.30;61.90;;;;;;10342203;28;20313;-44
2023/09/16 15:41:05;;;;;;;;;;;23.30;61.80;;;;;;10356265;28;19941;-45
2023/09/16 15:46:08;;;;;;;;;;;23.30;62.40;;;;;;10357566;28;19941;-45
2023/09/16 15:51:10;;;;;;;;;;;23.30;62.30;;;;;;10351586;28;19938;-43
2023/09/16 15:56:11;;;;;;;;;;;23.30;63.60;;;;;;10348409;28;19968;-42
2023/09/16 16:01:14;;;;;;;;;;;23.40;63.10;;;;;;10344350;28;19934;-45
2023/09/16 16:06:16;;;;;;;;;;;23.40;63.30;;;;;;10346070;28;20300;-43
2023/09/16 16:11:18;;;;;;;;;;;23.50;63.00;;;;;;10342269;28;20385;-45
2023/09/16 16:16:20;;;;;;;;;;;23.50;65.30;;;;;;10338273;28;20297;-43
2023/09/16 16:21:22;;;;;;;;;;;23.60;66.70;;;;;;10348847;28;20058;-43
2023/09/16 16:26:23;;;;;;;;;;;23.80;66.50;;;;;;10347662;28;19933;-45
2023/09/16 16:31:25;;;;;;;;;;;24.00;65.70;;;;;;10358473;28;19934;-44
2023/09/16 16:36:27;;;;;;;;;;;24.20;66.20;;;;;;10371003;28;20036;-42
2023/09/16 16:41:29;;;;;;;;;;;24.20;65.30;;;;;;10358672;28;20312;-43
2023/09/16 16:46:31;;;;;;;;;;;24.20;64.50;;;;;;10331146;28;19940;-44
2023/09/16 16:51:33;;;;;;;;;;;24.20;63.90;;;;;;10346493;28;19934;-42
2023/09/16 16:56:35;;;;;;;;;;;24.10;63.50;;;;;;10337235;28;19938;-45
2023/09/16 17:01:36;;;;;;;;;;;24.10;63.40;;;;;;10323311;28;19935;-42
2023/09/16 17:06:38;;;;;;;;;;;24.00;63.30;;;;;;10320117;28;20048;-46
2023/09/16 17:11:40;;;;;;;;;;;23.90;62.90;;;;;;10337700;28;19934;-47
2023/09/16 17:16:44;;;;;;;;;;;23.80;62.70;;;;;;10333667;28;19934;-44
2023/09/16 17:21:46;;;;;;;;;;;23.70;62.60;;;;;;10338997;28;19970;-43
2023/09/16 17:26:50;;;;;;;;;;;23.70;62.60;;;;;;10352210;28;19933;-43
2023/09/16 17:31:51;;;;;;;;;;;23.60;63.20;;;;;;10359140;28;19933;-46
2023/09/16 17:36:57;;;;;;;;;;;23.50;62.90;;;;;;10352972;28;20011;-44
2023/09/16 17:41:59;;;;;;;;;;;23.50;63.10;;;;;;10346037;28;20016;-44
2023/09/16 17:47:01;;;;;;;;;;;23.50;63.50;;;;;;10342583;28;20293;-46
2023/09/16 17:52:04;;;;;;;;;;;23.40;63.50;;;;;;10345758;28;19934;-44
2023/09/16 17:57:06;;;;;;;;;;;23.40;63.70;;;;;;10359168;28;20057;-47
2023/09/16 18:02:09;;;;;;;;;;;23.40;63.80;;;;;;10355884;28;19940;-45
2023/09/16 18:07:11;;;;;;;;;;;23.30;63.90;;;;;;10351070;28;20057;-45
2023/09/16 18:12:14;;;;;;;;;;;23.30;64.00;;;;;;10359904;28;19941;-45
2023/09/16 18:17:15;;;;;;;;;;;23.20;64.00;;;;;;10358836;28;19934;-43
2023/09/16 18:22:17;;;;;;;;;;;23.20;64.00;;;;;;10356662;28;19941;-43
2023/09/16 18:27:19;;;;;;;;;;;23.30;64.10;;;;;;10351916;28;19934;-55
2023/09/16 18:32:20;;;;;;;;;;;23.30;63.90;;;;;;10342973;28;19941;-44
2023/09/16 18:37:22;;;;;;;;;;;23.30;63.90;;;;;;10357220;28;20098;-45
2023/09/16 18:42:24;;;;;;;;;;;23.30;63.80;;;;;;10351173;28;19957;-44
2023/09/16 18:47:28;;;;;;;;;;;23.30;63.70;;;;;;10335946;28;19955;-43
2023/09/16 18:52:30;;;;;;;;;;;23.30;64.50;;;;;;10354660;28;19934;-42
2023/09/16 18:57:31;;;;;;;;;;;23.40;64.10;;;;;;10350440;28;20077;-43
2023/09/16 19:02:34;;;;;;;;;;;23.40;64.10;;;;;;10356252;28;19934;-44
2023/09/16 19:07:36;;;;;;;;;;;23.40;64.30;;;;;;10348439;28;20010;-49
2023/09/16 19:12:39;;;;;;;;;;;23.30;64.30;;;;;;10351249;28;20503;-47
2023/09/16 19:17:40;;;;;;;;;;;23.40;64.50;;;;;;10365406;28;19933;-44
2023/09/16 19:22:42;;;;;;;;;;;23.30;65.40;;;;;;10359295;28;19941;-42
2023/09/16 19:27:44;;;;;;;;;;;23.30;64.50;;;;;;10387990;28;20601;-43
2023/09/16 19:32:46;;;;;;;;;;;23.30;64.50;;;;;;10355991;28;20028;-44
2023/09/16 19:37:48;;;;;;;;;;;23.30;64.50;;;;;;10368837;28;19933;-43
2023/09/16 19:42:50;;;;;;;;;;;23.30;64.50;;;;;;10355227;28;19934;-44
2023/09/16 19:47:52;;;;;;;;;;;23.30;64.60;;;;;;10363352;28;19956;-44
2023/09/16 19:52:54;;;;;;;;;;;23.30;64.70;;;;;;10344921;28;19938;-43
2023/09/16 19:57:56;;;;;;;;;;;23.30;64.50;;;;;;10343328;28;19940;-43
2023/09/16 20:02:58;;;;;;;;;;;23.20;64.30;;;;;;10346654;28;20463;-47
2023/09/16 20:08:00;;;;;;;;;;;23.20;64.40;;;;;;10351512;28;19937;-43
2023/09/16 20:13:02;;;;;;;;;;;23.20;64.50;;;;;;10363482;28;19933;-44
2023/09/16 20:18:04;;;;;;;;;;;23.10;65.60;;;;;;10350991;28;19933;-46
2023/09/16 20:23:06;;;;;;;;;;;23.10;64.60;;;;;;10352292;28;19940;-46
2023/09/16 20:28:08;;;;;;;;;;;23.00;64.60;;;;;;10353379;28;19987;-51
2023/09/16 20:33:10;;;;;;;;;;;23.10;64.60;;;;;;10336988;28;20023;-44
2023/09/16 20:38:12;;;;;;;;;;;23.10;64.70;;;;;;10351594;28;20151;-44
2023/09/16 20:43:13;;;;;;;;;;;23.00;64.60;;;;;;10336160;28;20405;-47
2023/09/16 20:48:17;;;;;;;;;;;23.00;64.60;;;;;;10332830;28;20061;-44
2023/09/16 20:53:19;;;;;;;;;;;23.00;64.60;;;;;;10355764;28;19934;-48
2023/09/16 20:58:20;;;;;;;;;;;23.00;64.60;;;;;;10343600;28;20412;-44
2023/09/16 21:03:22;;;;;;;;;;;22.90;64.60;;;;;;10349305;28;20206;-46
2023/09/16 21:08:25;;;;;;;;;;;22.90;64.70;;;;;;10351137;28;20021;-45
2023/09/16 21:13:27;;;;;;;;;;;22.90;64.60;;;;;;10363994;28;19933;-47
2023/09/16 21:18:28;;;;;;;;;;;22.90;64.60;;;;;;10354519;28;19934;-44
2023/09/16 21:23:30;;;;;;;;;;;22.90;64.60;;;;;;10354644;28;19993;-45
2023/09/16 21:28:32;;;;;;;;;;;22.90;64.60;;;;;;10345092;28;19941;-44
2023/09/16 21:33:35;;;;;;;;;;;22.90;64.60;;;;;;10344654;28;19944;-43
2023/09/16 21:38:36;;;;;;;;;;;22.80;64.50;;;;;;10355866;28;20029;-44
2023/09/16 21:43:38;;;;;;;;;;;22.80;64.50;;;;;;10360333;28;19933;-43
2023/09/16 21:48:40;;;;;;;;;;;22.80;64.60;;;;;;10361182;28;19941;-43
2023/09/16 21:53:42;;;;;;;;;;;22.80;64.60;;;;;;10333335;28;19940;-45
2023/09/16 21:58:44;;;;;;;;;;;22.80;64.60;;;;;;10350716;28;19940;-44
2023/09/16 22:03:45;;;;;;;;;;;22.80;64.60;;;;;;10345138;28;19934;-43
2023/09/16 22:08:47;;;;;;;;;;;22.80;64.50;;;;;;10354576;28;19934;-43
2023/09/16 22:13:49;;;;;;;;;;;22.80;64.60;;;;;;10337299;28;19934;-45
2023/09/16 22:18:51;;;;;;;;;;;22.80;64.50;;;;;;10318295;28;19934;-44
2023/09/16 22:23:53;;;;;;;;;;;22.80;64.60;;;;;;10360884;28;19934;-44
2023/09/16 22:28:55;;;;;;;;;;;22.80;64.70;;;;;;10341104;28;19934;-43
2023/09/16 22:33:59;;;;;;;;;;;22.80;64.70;;;;;;10347934;28;20302;-45
2023/09/16 22:39:01;;;;;;;;;;;22.80;64.70;;;;;;10330686;28;19934;-45
2023/09/16 22:44:03;;;;;;;;;;;22.80;64.70;;;;;;10325835;28;19937;-43
2023/09/16 22:49:05;;;;;;;;;;;22.80;64.70;;;;;;10332140;28;19933;-45
2023/09/16 22:54:07;;;;;;;;;;;22.70;64.70;;;;;;10341485;28;20028;-42
2023/09/16 22:59:09;;;;;;;;;;;22.80;64.70;;;;;;10335204;28;19933;-46
2023/09/16 23:04:10;;;;;;;;;;;22.80;64.70;;;;;;10354528;28;19940;-42
2023/09/16 23:09:12;;;;;;;;;;;22.80;64.80;;;;;;10348915;28;20025;-43
2023/09/16 23:14:14;;;;;;;;;;;22.80;64.70;;;;;;10348779;28;20595;-44
2023/09/16 23:19:15;;;;;;;;;;;22.80;64.70;;;;;;10338907;28;19940;-48
2023/09/16 23:24:17;;;;;;;;;;;22.80;64.70;;;;;;10349861;28;20333;-44
2023/09/16 23:29:19;;;;;;;;;;;22.80;64.70;;;;;;10350661;28;19960;-46
2023/09/16 23:34:21;;;;;;;;;;;22.80;64.70;;;;;;10338626;28;19934;-45
2023/09/16 23:39:23;;;;;;;;;;;22.80;64.60;;;;;;10352509;28;20121;-47
2023/09/16 23:44:25;;;;;;;;;;;22.80;64.60;;;;;;10356059;28;19934;-43
2023/09/16 23:49:27;;;;;;;;;;;22.80;64.70;;;;;;10338111;28;19934;-47
2023/09/16 23:54:30;;;;;;;;;;;22.80;64.60;;;;;;10360204;28;35362;-43
2023/09/16 23:59:33;;;;;;;;;;;22.80;64.70;;;;;;10366238;28;19933;-43
